sensor_id;sensor_type;location;lat;lon;timestamp;pressure;altitude;pressure_sealevel;temperature;humidity
29197;BME280;62796;42.654;23.316;2023-03-25T00:00:07;94280.38;;;13.00;45.98
29197;BME280;62796;42.654;23.316;2023-03-25T00:02:41;94278.63;;;12.92;45.98
29197;BME280;62796;42.654;23.316;2023-03-25T00:05:09;94278.88;;;12.88;46.35
29197;BME280;62796;42.654;23.316;2023-03-25T00:07:37;94280.66;;;12.86;46.44
29197;BME280;62796;42.654;23.316;2023-03-25T00:10:02;94282.16;;;12.75;46.46
29197;BME280;62796;42.654;23.316;2023-03-25T00:12:28;94287.97;;;12.77;46.35
29197;BME280;62796;42.654;23.316;2023-03-25T00:14:55;94280.66;;;12.74;46.63
29197;BME280;62796;42.654;23.316;2023-03-25T00:17:23;94280.13;;;12.70;46.71
29197;BME280;62796;42.654;23.316;2023-03-25T00:19:54;94275.06;;;12.63;46.84
29197;BME280;62796;42.654;23.316;2023-03-25T00:22:20;94277.38;;;12.65;46.83
29197;BME280;62796;42.654;23.316;2023-03-25T00:24:46;94267.50;;;12.58;46.85
29197;BME280;62796;42.654;23.316;2023-03-25T00:27:12;94261.72;;;12.51;46.96
29197;BME280;62796;42.654;23.316;2023-03-25T00:29:39;94262.72;;;12.53;47.01
29197;BME280;62796;42.654;23.316;2023-03-25T00:32:06;94256.41;;;12.47;46.81
29197;BME280;62796;42.654;23.316;2023-03-25T00:34:31;94249.56;;;12.43;46.90
29197;BME280;62796;42.654;23.316;2023-03-25T00:36:59;94255.41;;;12.50;46.98
29197;BME280;62796;42.654;23.316;2023-03-25T00:39:27;94256.66;;;12.49;47.38
29197;BME280;62796;42.654;23.316;2023-03-25T00:41:52;94264.72;;;12.53;47.55
29197;BME280;62796;42.654;23.316;2023-03-25T00:44:21;94257.41;;;12.44;47.35
29197;BME280;62796;42.654;23.316;2023-03-25T00:46:47;94260.44;;;12.46;47.21
29197;BME280;62796;42.654;23.316;2023-03-25T00:49:13;94248.84;;;12.42;47.55
29197;BME280;62796;42.654;23.316;2023-03-25T00:51:38;94249.31;;;12.46;47.23
29197;BME280;62796;42.654;23.316;2023-03-25T00:54:03;94245.78;;;12.40;47.07
29197;BME280;62796;42.654;23.316;2023-03-25T00:56:29;94250.34;;;12.43;47.18
29197;BME280;62796;42.654;23.316;2023-03-25T00:58:55;94257.41;;;12.44;47.02
29197;BME280;62796;42.654;23.316;2023-03-25T01:01:26;94250.84;;;12.42;47.22
29197;BME280;62796;42.654;23.316;2023-03-25T01:03:53;94242.28;;;12.45;46.99
29197;BME280;62796;42.654;23.316;2023-03-25T01:06:23;94230.66;;;12.41;46.87
29197;BME280;62796;42.654;23.316;2023-03-25T01:08:54;94237.72;;;12.42;47.16
29197;BME280;62796;42.654;23.316;2023-03-25T01:11:25;94238.72;;;12.39;46.94
29197;BME280;62796;42.654;23.316;2023-03-25T01:13:53;94234.19;;;12.36;47.36
29197;BME280;62796;42.654;23.316;2023-03-25T01:16:19;94232.66;;;12.35;47.02
29197;BME280;62796;42.654;23.316;2023-03-25T01:18:44;94223.06;;;12.25;47.43
29197;BME280;62796;42.654;23.316;2023-03-25T01:21:10;94220.78;;;12.29;47.42
29197;BME280;62796;42.654;23.316;2023-03-25T01:23:35;94220.03;;;12.34;47.58
29197;BME280;62796;42.654;23.316;2023-03-25T01:26:01;94222.56;;;12.32;47.09
29197;BME280;62796;42.654;23.316;2023-03-25T01:28:26;94225.81;;;12.31;47.22
29197;BME280;62796;42.654;23.316;2023-03-25T01:31:02;94216.00;;;12.24;47.69
29197;BME280;62796;42.654;23.316;2023-03-25T01:33:28;94216.25;;;12.20;47.94
29197;BME280;62796;42.654;23.316;2023-03-25T01:35:54;94208.41;;;12.13;47.93
29197;BME280;62796;42.654;23.316;2023-03-25T01:38:19;94214.22;;;12.15;48.13
29197;BME280;62796;42.654;23.316;2023-03-25T01:40:45;94202.09;;;12.13;47.81
29197;BME280;62796;42.654;23.316;2023-03-25T01:43:11;94200.84;;;12.14;47.82
29197;BME280;62796;42.654;23.316;2023-03-25T01:45:38;94188.72;;;12.06;48.02
29197;BME280;62796;42.654;23.316;2023-03-25T01:48:09;94194.28;;;12.06;48.03
29197;BME280;62796;42.654;23.316;2023-03-25T01:50:42;94188.97;;;12.02;48.11
29197;BME280;62796;42.654;23.316;2023-03-25T01:53:09;94202.09;;;12.02;48.05
29197;BME280;62796;42.654;23.316;2023-03-25T01:55:35;94204.88;;;12.02;48.26
29197;BME280;62796;42.654;23.316;2023-03-25T01:58:03;94201.84;;;12.00;48.32
29197;BME280;62796;42.654;23.316;2023-03-25T02:00:32;94204.34;;;11.98;48.47
29197;BME280;62796;42.654;23.316;2023-03-25T02:03:00;94204.84;;;11.91;48.43
29197;BME280;62796;42.654;23.316;2023-03-25T02:05:36;94203.34;;;11.90;48.59
29197;BME280;62796;42.654;23.316;2023-03-25T02:08:04;94204.34;;;11.87;48.54
29197;BME280;62796;42.654;23.316;2023-03-25T02:10:31;94184.13;;;11.81;48.30
29197;BME280;62796;42.654;23.316;2023-03-25T02:12:58;94204.09;;;11.85;48.78
29197;BME280;62796;42.654;23.316;2023-03-25T02:15:24;94187.66;;;11.76;48.72
29197;BME280;62796;42.654;23.316;2023-03-25T02:23:50;94184.34;;;11.66;49.16
29197;BME280;62796;42.654;23.316;2023-03-25T02:28:55;94183.84;;;11.68;49.32
29197;BME280;62796;42.654;23.316;2023-03-25T02:32:05;94186.09;;;11.63;49.14
29197;BME280;62796;42.654;23.316;2023-03-25T02:37:43;94177.22;;;11.48;49.34
29197;BME280;62796;42.654;23.316;2023-03-25T02:40:17;94185.31;;;11.52;49.41
29197;BME280;62796;42.654;23.316;2023-03-25T02:42:53;94183.25;;;11.41;49.15
29197;BME280;62796;42.654;23.316;2023-03-25T02:45:25;94184.53;;;11.40;49.45
29197;BME280;62796;42.654;23.316;2023-03-25T02:47:57;94184.53;;;11.40;49.65
29197;BME280;62796;42.654;23.316;2023-03-25T02:50:29;94178.47;;;11.36;49.88
29197;BME280;62796;42.654;23.316;2023-03-25T02:52:59;94182.00;;;11.42;49.61
29197;BME280;62796;42.654;23.316;2023-03-25T02:55:27;94180.25;;;11.45;49.97
29197;BME280;62796;42.654;23.316;2023-03-25T02:57:58;94172.16;;;11.41;49.94
29197;BME280;62796;42.654;23.316;2023-03-25T03:00:29;94177.22;;;11.43;50.11
29197;BME280;62796;42.654;23.316;2023-03-25T03:03:03;94171.69;;;11.43;50.21
29197;BME280;62796;42.654;23.316;2023-03-25T03:05:35;94177.22;;;11.43;50.03
29197;BME280;62796;42.654;23.316;2023-03-25T03:08:37;94169.38;;;11.41;50.29
29197;BME280;62796;42.654;23.316;2023-03-25T03:11:18;94175.94;;;11.38;49.87
29197;BME280;62796;42.654;23.316;2023-03-25T03:17:05;94164.81;;;11.27;49.89
29197;BME280;62796;42.654;23.316;2023-03-25T03:19:44;94165.03;;;11.24;50.31
29197;BME280;62796;42.654;23.316;2023-03-25T03:22:41;94172.09;;;11.19;50.17
29197;BME280;62796;42.654;23.316;2023-03-25T03:27:45;94172.34;;;11.21;50.43
29197;BME280;62796;42.654;23.316;2023-03-25T03:33:28;94186.19;;;11.16;50.50
29197;BME280;62796;42.654;23.316;2023-03-25T03:35:36;94176.34;;;11.15;50.31
29197;BME280;62796;42.654;23.316;2023-03-25T03:38:08;94171.56;;;11.09;50.22
29197;BME280;62796;42.654;23.316;2023-03-25T03:40:36;94168.53;;;11.07;50.33
29197;BME280;62796;42.654;23.316;2023-03-25T03:43:06;94177.31;;;11.06;50.80
29197;BME280;62796;42.654;23.316;2023-03-25T03:45:42;94180.06;;;11.00;50.80
29197;BME280;62796;42.654;23.316;2023-03-25T03:48:16;94181.03;;;10.92;51.01
29197;BME280;62796;42.654;23.316;2023-03-25T03:50:49;94185.34;;;10.93;50.76
29197;BME280;62796;42.654;23.316;2023-03-25T03:53:22;94174.75;;;10.97;50.85
29197;BME280;62796;42.654;23.316;2023-03-25T03:56:07;94179.81;;;10.98;50.75
29197;BME280;62796;42.654;23.316;2023-03-25T03:58:40;94180.06;;;10.95;50.97
29197;BME280;62796;42.654;23.316;2023-03-25T04:01:30;94170.16;;;10.83;50.84
29197;BME280;62796;42.654;23.316;2023-03-25T04:04:02;94184.03;;;10.88;50.79
29197;BME280;62796;42.654;23.316;2023-03-25T04:06:36;94170.69;;;10.87;51.04
29197;BME280;62796;42.654;23.316;2023-03-25T04:09:29;94184.81;;;10.89;51.19
29197;BME280;62796;42.654;23.316;2023-03-25T04:12:03;94175.69;;;10.83;51.20
29197;BME280;62796;42.654;23.316;2023-03-25T04:14:31;94174.47;;;10.84;51.28
29197;BME280;62796;42.654;23.316;2023-03-25T04:16:57;94181.25;;;10.83;50.96
29197;BME280;62796;42.654;23.316;2023-03-25T04:19:24;94165.88;;;10.82;51.05
29197;BME280;62796;42.654;23.316;2023-03-25T04:21:50;94183.28;;;10.88;51.12
29197;BME280;62796;42.654;23.316;2023-03-25T04:24:16;94176.75;;;10.91;50.82
29197;BME280;62796;42.654;23.316;2023-03-25T04:26:44;94156.56;;;10.85;50.62
29197;BME280;62796;42.654;23.316;2023-03-25T04:29:09;94175.97;;;10.90;50.84
29197;BME280;62796;42.654;23.316;2023-03-25T04:31:35;94179.53;;;10.96;50.61
29197;BME280;62796;42.654;23.316;2023-03-25T04:34:02;94173.25;;;10.96;50.51
29197;BME280;62796;42.654;23.316;2023-03-25T04:36:29;94176.75;;;10.96;50.71
29197;BME280;62796;42.654;23.316;2023-03-25T04:38:58;94177.28;;;10.95;51.01
29197;BME280;62796;42.654;23.316;2023-03-25T04:41:23;94183.09;;;11.02;50.77
29197;BME280;62796;42.654;23.316;2023-03-25T04:43:49;94181.38;;;11.05;50.73
29197;BME280;62796;42.654;23.316;2023-03-25T04:46:16;94186.41;;;11.06;50.71
29197;BME280;62796;42.654;23.316;2023-03-25T04:48:42;94188.41;;;11.06;51.09
29197;BME280;62796;42.654;23.316;2023-03-25T04:51:13;94184.16;;;11.10;50.87
29197;BME280;62796;42.654;23.316;2023-03-25T04:53:40;94187.41;;;11.09;50.32
29197;BME280;62796;42.654;23.316;2023-03-25T04:56:07;94191.50;;;11.19;50.16
29197;BME280;62796;42.654;23.316;2023-03-25T04:58:40;94191.28;;;11.23;50.28
29197;BME280;62796;42.654;23.316;2023-03-25T05:01:05;94196.06;;;11.22;50.33
29197;BME280;62796;42.654;23.316;2023-03-25T05:03:32;94195.84;;;11.31;50.24
29197;BME280;62796;42.654;23.316;2023-03-25T05:05:57;94191.06;;;11.37;50.24
29197;BME280;62796;42.654;23.316;2023-03-25T05:08:23;94189.56;;;11.47;49.66
29197;BME280;62796;42.654;23.316;2023-03-25T05:10:48;94193.13;;;11.53;49.74
29197;BME280;62796;42.654;23.316;2023-03-25T05:13:14;94194.91;;;11.62;49.38
29197;BME280;62796;42.654;23.316;2023-03-25T05:15:39;94189.44;;;11.73;49.33
29197;BME280;62796;42.654;23.316;2023-03-25T05:18:10;94187.19;;;11.88;49.28
29197;BME280;62796;42.654;23.316;2023-03-25T05:20:39;94187.72;;;12.09;48.60
29197;BME280;62796;42.654;23.316;2023-03-25T05:23:09;94184.72;;;12.12;49.06
29197;BME280;62796;42.654;23.316;2023-03-25T05:25:39;94192.50;;;12.25;48.79
29197;BME280;62796;42.654;23.316;2023-03-25T05:28:05;94194.53;;;12.36;48.74
29197;BME280;62796;42.654;23.316;2023-03-25T05:30:35;94183.66;;;12.43;47.91
29197;BME280;62796;42.654;23.316;2023-03-25T05:33:04;94187.69;;;12.64;47.91
29197;BME280;62796;42.654;23.316;2023-03-25T05:35:30;94189.44;;;12.78;47.68
29197;BME280;62796;42.654;23.316;2023-03-25T05:37:55;94176.56;;;12.87;47.77
29197;BME280;62796;42.654;23.316;2023-03-25T05:40:21;94194.69;;;13.15;47.08
29197;BME280;62796;42.654;23.316;2023-03-25T05:42:46;94191.59;;;13.30;46.51
29197;BME280;62796;42.654;23.316;2023-03-25T05:45:14;94194.59;;;13.43;46.21
29197;BME280;62796;42.654;23.316;2023-03-25T05:47:40;94194.78;;;13.62;45.75
29197;BME280;62796;42.654;23.316;2023-03-25T05:50:06;94183.56;;;13.73;45.44
29197;BME280;62796;42.654;23.316;2023-03-25T05:52:33;94196.34;;;13.93;44.58
29197;BME280;62796;42.654;23.316;2023-03-25T05:54:58;94199.28;;;14.11;44.50
29197;BME280;62796;42.654;23.316;2023-03-25T05:57:24;94200.16;;;14.36;44.32
29197;BME280;62796;42.654;23.316;2023-03-25T05:59:49;94199.97;;;14.58;43.81
29197;BME280;62796;42.654;23.316;2023-03-25T06:02:16;94196.97;;;14.80;42.92
29197;BME280;62796;42.654;23.316;2023-03-25T06:04:42;94205.13;;;15.03;42.82
29197;BME280;62796;42.654;23.316;2023-03-25T06:07:12;94187.09;;;15.28;40.85
29197;BME280;62796;42.654;23.316;2023-03-25T06:09:47;94186.50;;;15.59;40.49
29197;BME280;62796;42.654;23.316;2023-03-25T06:12:14;94191.81;;;15.81;39.81
29197;BME280;62796;42.654;23.316;2023-03-25T06:14:40;94193.84;;;15.99;38.53
29197;BME280;62796;42.654;23.316;2023-03-25T06:17:14;94189.91;;;16.27;37.99
29197;BME280;62796;42.654;23.316;2023-03-25T06:19:40;94184.88;;;16.38;37.76
29197;BME280;62796;42.654;23.316;2023-03-25T06:22:07;94173.91;;;16.59;37.36
29197;BME280;62796;42.654;23.316;2023-03-25T06:24:40;94178.06;;;16.84;36.52
29197;BME280;62796;42.654;23.316;2023-03-25T06:27:16;94185.09;;;17.17;35.48
29197;BME280;62796;42.654;23.316;2023-03-25T06:29:42;94181.75;;;17.45;35.12
29197;BME280;62796;42.654;23.316;2023-03-25T06:32:11;94175.63;;;17.59;34.05
29197;BME280;62796;42.654;23.316;2023-03-25T06:34:37;94185.53;;;17.60;33.74
29197;BME280;62796;42.654;23.316;2023-03-25T06:37:04;94184.97;;;17.75;34.13
29197;BME280;62796;42.654;23.316;2023-03-25T06:39:30;94179.06;;;17.79;33.64
29197;BME280;62796;42.654;23.316;2023-03-25T06:41:59;94187.97;;;17.90;33.33
29197;BME280;62796;42.654;23.316;2023-03-25T06:44:26;94195.69;;;18.10;32.83
29197;BME280;62796;42.654;23.316;2023-03-25T06:46:52;94199.97;;;18.24;32.69
29197;BME280;62796;42.654;23.316;2023-03-25T06:49:17;94192.31;;;18.46;32.18
29197;BME280;62796;42.654;23.316;2023-03-25T06:51:43;94195.09;;;18.59;31.99
29197;BME280;62796;42.654;23.316;2023-03-25T06:54:09;94201.53;;;18.88;32.10
29197;BME280;62796;42.654;23.316;2023-03-25T06:56:34;94193.63;;;18.99;31.43
29197;BME280;62796;42.654;23.316;2023-03-25T06:59:00;94206.75;;;19.32;30.74
29197;BME280;62796;42.654;23.316;2023-03-25T07:01:25;94211.41;;;19.51;30.86
29197;BME280;62796;42.654;23.316;2023-03-25T07:03:51;94204.59;;;19.67;30.36
29197;BME280;62796;42.654;23.316;2023-03-25T07:06:19;94201.81;;;19.74;30.30
29197;BME280;62796;42.654;23.316;2023-03-25T07:08:46;94193.25;;;19.80;30.40
29197;BME280;62796;42.654;23.316;2023-03-25T07:11:13;94199.38;;;20.07;30.30
29197;BME280;62796;42.654;23.316;2023-03-25T07:13:39;94197.06;;;19.62;30.76
29197;BME280;62796;42.654;23.316;2023-03-25T07:16:05;94200.34;;;19.81;30.50
29197;BME280;62796;42.654;23.316;2023-03-25T07:18:30;94181.53;;;20.04;30.05
29197;BME280;62796;42.654;23.316;2023-03-25T07:20:56;94186.84;;;20.15;30.02
29197;BME280;62796;42.654;23.316;2023-03-25T07:23:21;94181.88;;;20.36;30.15
29197;BME280;62796;42.654;23.316;2023-03-25T07:25:47;94190.41;;;20.23;29.65
29197;BME280;62796;42.654;23.316;2023-03-25T07:28:12;94193.69;;;20.42;29.82
29197;BME280;62796;42.654;23.316;2023-03-25T07:30:38;94197.88;;;20.72;29.25
29197;BME280;62796;42.654;23.316;2023-03-25T07:33:03;94193.41;;;20.99;29.53
29197;BME280;62796;42.654;23.316;2023-03-25T07:35:29;94190.25;;;21.25;28.70
29197;BME280;62796;42.654;23.316;2023-03-25T07:37:54;94191.50;;;20.94;29.29
29197;BME280;62796;42.654;23.316;2023-03-25T07:40:19;94186.66;;;21.02;29.56
29197;BME280;62796;42.654;23.316;2023-03-25T07:42:45;94190.97;;;21.48;28.79
29197;BME280;62796;42.654;23.316;2023-03-25T07:45:11;94189.59;;;21.80;28.41
29197;BME280;62796;42.654;23.316;2023-03-25T07:47:36;94181.47;;;21.99;27.68
29197;BME280;62796;42.654;23.316;2023-03-25T07:50:02;94175.72;;;22.29;27.27
29197;BME280;62796;42.654;23.316;2023-03-25T07:52:27;94164.94;;;22.43;27.02
29197;BME280;62796;42.654;23.316;2023-03-25T07:54:53;94170.47;;;22.58;27.34
29197;BME280;62796;42.654;23.316;2023-03-25T07:57:18;94165.47;;;22.81;26.71
29197;BME280;62796;42.654;23.316;2023-03-25T07:59:43;94152.63;;;22.88;26.66
29197;BME280;62796;42.654;23.316;2023-03-25T08:02:13;94167.84;;;23.17;26.24
29197;BME280;62796;42.654;23.316;2023-03-25T08:04:38;94164.09;;;23.14;25.75
29197;BME280;62796;42.654;23.316;2023-03-25T08:07:04;94168.84;;;22.80;25.98
29197;BME280;62796;42.654;23.316;2023-03-25T08:09:29;94153.78;;;22.85;26.38
29197;BME280;62796;42.654;23.316;2023-03-25T08:11:55;94149.25;;;23.31;26.58
29197;BME280;62796;42.654;23.316;2023-03-25T08:14:21;94154.38;;;23.84;25.98
29197;BME280;62796;42.654;23.316;2023-03-25T08:16:46;94151.25;;;24.14;25.23
29197;BME280;62796;42.654;23.316;2023-03-25T08:19:12;94150.47;;;24.31;25.05
29197;BME280;62796;42.654;23.316;2023-03-25T08:21:37;94144.56;;;24.63;24.36
29197;BME280;62796;42.654;23.316;2023-03-25T08:24:02;94147.81;;;24.87;24.01
29197;BME280;62796;42.654;23.316;2023-03-25T08:26:32;94137.59;;;24.74;24.53
29197;BME280;62796;42.654;23.316;2023-03-25T08:28:58;94134.34;;;24.77;24.31
29197;BME280;62796;42.654;23.316;2023-03-25T08:31:25;94142.03;;;24.67;24.20
29197;BME280;62796;42.654;23.316;2023-03-25T08:33:51;94146.00;;;24.11;25.09
29197;BME280;62796;42.654;23.316;2023-03-25T08:36:16;94142.84;;;24.51;24.88
29197;BME280;62796;42.654;23.316;2023-03-25T08:38:48;94133.19;;;24.81;24.54
29197;BME280;62796;42.654;23.316;2023-03-25T08:41:13;94121.81;;;25.07;23.65
29197;BME280;62796;42.654;23.316;2023-03-25T08:43:39;94122.94;;;25.31;23.41
29197;BME280;62796;42.654;23.316;2023-03-25T08:46:05;94118.63;;;25.40;23.73
29197;BME280;62796;42.654;23.316;2023-03-25T08:48:30;94120.22;;;25.33;23.73
29197;BME280;62796;42.654;23.316;2023-03-25T08:50:56;94121.16;;;25.45;23.36
29197;BME280;62796;42.654;23.316;2023-03-25T08:53:22;94119.00;;;25.17;23.81
29197;BME280;62796;42.654;23.316;2023-03-25T08:55:55;94122.47;;;24.35;24.98
29197;BME280;62796;42.654;23.316;2023-03-25T08:58:21;94117.69;;;24.28;25.17
29197;BME280;62796;42.654;23.316;2023-03-25T09:00:47;94125.78;;;24.41;24.71
29197;BME280;62796;42.654;23.316;2023-03-25T09:03:13;94111.06;;;24.43;24.70
29197;BME280;62796;42.654;23.316;2023-03-25T09:05:38;94114.25;;;24.56;24.68
29197;BME280;62796;42.654;23.316;2023-03-25T09:08:05;94115.84;;;24.76;24.47
29197;BME280;62796;42.654;23.316;2023-03-25T09:10:31;94101.94;;;24.98;24.06
29197;BME280;62796;42.654;23.316;2023-03-25T09:12:56;94107.59;;;24.98;24.49
29197;BME280;62796;42.654;23.316;2023-03-25T09:15:22;94098.28;;;25.14;23.54
29197;BME280;62796;42.654;23.316;2023-03-25T09:17:47;94100.38;;;25.33;23.86
29197;BME280;62796;42.654;23.316;2023-03-25T09:20:13;94102.09;;;25.55;24.11
29197;BME280;62796;42.654;23.316;2023-03-25T09:22:39;94094.22;;;25.73;24.07
29197;BME280;62796;42.654;23.316;2023-03-25T09:25:05;94094.63;;;26.08;22.93
29197;BME280;62796;42.654;23.316;2023-03-25T09:27:32;94087.31;;;26.43;22.02
29197;BME280;62796;42.654;23.316;2023-03-25T09:29:57;94083.00;;;26.23;22.44
29197;BME280;62796;42.654;23.316;2023-03-25T09:32:23;94079.72;;;25.98;22.96
29197;BME280;62796;42.654;23.316;2023-03-25T09:34:49;94077.34;;;25.84;22.77
29197;BME280;62796;42.654;23.316;2023-03-25T09:37:15;94084.78;;;26.09;22.56
29197;BME280;62796;42.654;23.316;2023-03-25T09:39:40;94081.03;;;26.25;22.31
29197;BME280;62796;42.654;23.316;2023-03-25T09:45:16;94077.19;;;26.80;21.99
29197;BME280;62796;42.654;23.316;2023-03-25T09:50:18;94069.59;;;25.56;23.23
29197;BME280;62796;42.654;23.316;2023-03-25T09:53:03;94070.03;;;25.81;22.45
29197;BME280;62796;42.654;23.316;2023-03-25T09:55:33;94058.69;;;25.91;22.18
29197;BME280;62796;42.654;23.316;2023-03-25T10:01:02;94057.41;;;24.71;23.89
29197;BME280;62796;42.654;23.316;2023-03-25T10:03:36;94066.47;;;24.60;24.24
29197;BME280;62796;42.654;23.316;2023-03-25T10:06:18;94061.34;;;24.86;23.41
29197;BME280;62796;42.654;23.316;2023-03-25T10:14:12;94045.03;;;25.13;23.07
29197;BME280;62796;42.654;23.316;2023-03-25T10:16:56;94045.34;;;25.17;23.02
29197;BME280;62796;42.654;23.316;2023-03-25T10:22:26;94024.16;;;25.08;22.86
29197;BME280;62796;42.654;23.316;2023-03-25T10:25:00;94023.75;;;24.75;22.93
29197;BME280;62796;42.654;23.316;2023-03-25T10:27:36;94033.97;;;24.25;23.09
29197;BME280;62796;42.654;23.316;2023-03-25T10:30:22;94019.34;;;24.19;23.07
29197;BME280;62796;42.654;23.316;2023-03-25T10:33:01;94017.91;;;23.84;23.51
29197;BME280;62796;42.654;23.316;2023-03-25T10:35:30;94013.69;;;24.19;22.73
29197;BME280;62796;42.654;23.316;2023-03-25T10:38:02;94017.53;;;24.50;22.19
29197;BME280;62796;42.654;23.316;2023-03-25T10:40:41;94003.53;;;24.16;22.45
29197;BME280;62796;42.654;23.316;2023-03-25T10:43:26;94003.97;;;24.12;22.96
29197;BME280;62796;42.654;23.316;2023-03-25T10:48:39;94002.16;;;24.34;23.31
29197;BME280;62796;42.654;23.316;2023-03-25T10:51:09;93991.84;;;24.75;22.48
29197;BME280;62796;42.654;23.316;2023-03-25T10:53:35;93992.09;;;25.25;21.99
29197;BME280;62796;42.654;23.316;2023-03-25T10:56:15;93987.31;;;25.66;21.06
29197;BME280;62796;42.654;23.316;2023-03-25T10:58:45;93983.47;;;25.71;20.86
29197;BME280;62796;42.654;23.316;2023-03-25T11:01:17;93974.34;;;25.72;21.38
29197;BME280;62796;42.654;23.316;2023-03-25T11:03:45;93970.78;;;25.62;21.77
29197;BME280;62796;42.654;23.316;2023-03-25T11:06:28;93977.59;;;25.98;21.65
29197;BME280;62796;42.654;23.316;2023-03-25T11:11:34;93972.56;;;25.67;22.15
29197;BME280;62796;42.654;23.316;2023-03-25T11:14:00;93959.41;;;25.24;22.80
29197;BME280;62796;42.654;23.316;2023-03-25T11:16:39;93959.72;;;25.57;22.52
29197;BME280;62796;42.654;23.316;2023-03-25T11:19:05;93947.19;;;25.69;22.40
29197;BME280;62796;42.654;23.316;2023-03-25T11:21:32;93932.09;;;25.76;22.18
29197;BME280;62796;42.654;23.316;2023-03-25T11:24:00;93943.69;;;25.90;21.98
29197;BME280;62796;42.654;23.316;2023-03-25T11:26:27;93942.59;;;26.05;21.90
29197;BME280;62796;42.654;23.316;2023-03-25T11:29:05;93933.53;;;25.87;22.06
29197;BME280;62796;42.654;23.316;2023-03-25T11:31:35;93930.78;;;25.58;21.78
29197;BME280;62796;42.654;23.316;2023-03-25T11:36:29;93934.66;;;25.34;22.25
29197;BME280;62796;42.654;23.316;2023-03-25T11:38:58;93929.59;;;25.23;22.23
29197;BME280;62796;42.654;23.316;2023-03-25T11:41:27;93925.41;;;25.05;23.09
29197;BME280;62796;42.654;23.316;2023-03-25T11:43:53;93922.75;;;25.26;22.57
29197;BME280;62796;42.654;23.316;2023-03-25T11:46:20;93910.19;;;25.48;22.19
29197;BME280;62796;42.654;23.316;2023-03-25T11:48:47;93904.50;;;26.17;21.29
29197;BME280;62796;42.654;23.316;2023-03-25T11:51:29;93915.75;;;26.67;19.97
29197;BME280;62796;42.654;23.316;2023-03-25T11:54:07;93906.13;;;26.51;20.32
29197;BME280;62796;42.654;23.316;2023-03-25T11:56:38;93898.91;;;26.60;20.57
29197;BME280;62796;42.654;23.316;2023-03-25T11:59:25;93892.09;;;26.74;19.90
29197;BME280;62796;42.654;23.316;2023-03-25T12:02:08;93898.03;;;26.78;19.53
29197;BME280;62796;42.654;23.316;2023-03-25T12:04:57;93885.19;;;26.77;19.38
29197;BME280;62796;42.654;23.316;2023-03-25T12:07:24;93894.16;;;26.83;19.75
29197;BME280;62796;42.654;23.316;2023-03-25T12:09:55;93892.09;;;26.74;19.58
29197;BME280;62796;42.654;23.316;2023-03-25T12:12:56;93876.66;;;26.56;19.41
29197;BME280;62796;42.654;23.316;2023-03-25T12:32:19;93884.13;;;25.02;21.26
29197;BME280;62796;42.654;23.316;2023-03-25T12:43:05;93890.41;;;23.99;22.36
29197;BME280;62796;42.654;23.316;2023-03-25T12:51:37;93883.34;;;23.54;22.73
29197;BME280;62796;42.654;23.316;2023-03-25T12:54:37;93884.16;;;23.64;22.64
29197;BME280;62796;42.654;23.316;2023-03-25T12:57:53;93883.31;;;23.27;23.03
29197;BME280;62796;42.654;23.316;2023-03-25T13:00:25;93887.50;;;23.26;23.12
29197;BME280;62796;42.654;23.316;2023-03-25T13:03:22;93889.50;;;23.16;23.22
29197;BME280;62796;42.654;23.316;2023-03-25T13:06:15;93874.41;;;22.87;23.55
29197;BME280;62796;42.654;23.316;2023-03-25T13:08:49;93880.38;;;22.91;23.61
29197;BME280;62796;42.654;23.316;2023-03-25T13:11:23;93870.75;;;22.77;23.50
29197;BME280;62796;42.654;23.316;2023-03-25T13:13:52;93882.75;;;22.85;23.87
29197;BME280;62796;42.654;23.316;2023-03-25T13:16:21;93878.97;;;22.82;23.71
29197;BME280;62796;42.654;23.316;2023-03-25T13:19:10;93875.44;;;22.82;24.08
29197;BME280;62796;42.654;23.316;2023-03-25T13:21:43;93884.84;;;22.59;24.69
29197;BME280;62796;42.654;23.316;2023-03-25T13:24:16;93866.41;;;22.41;24.76
29197;BME280;62796;42.654;23.316;2023-03-25T13:26:44;93885.13;;;22.12;25.41
29197;BME280;62796;42.654;23.316;2023-03-25T13:31:47;93890.72;;;21.95;25.99
29197;BME280;62796;42.654;23.316;2023-03-25T13:34:35;93888.69;;;21.88;26.45
29197;BME280;62796;42.654;23.316;2023-03-25T13:37:15;93899.06;;;21.78;27.61
29197;BME280;62796;42.654;23.316;2023-03-25T13:42:26;93893.91;;;21.67;28.45
29197;BME280;62796;42.654;23.316;2023-03-25T13:44:56;93900.41;;;21.44;28.32
29197;BME280;62796;42.654;23.316;2023-03-25T13:47:40;93918.03;;;21.52;28.10
29197;BME280;62796;42.654;23.316;2023-03-25T13:50:26;93925.53;;;21.18;28.79
29197;BME280;62796;42.654;23.316;2023-03-25T13:53:17;93937.56;;;21.03;29.72
29197;BME280;62796;42.654;23.316;2023-03-25T13:58:42;93948.03;;;19.95;33.90
29197;BME280;62796;42.654;23.316;2023-03-25T14:14:49;93959.28;;;18.85;40.58
29197;BME280;62796;42.654;23.316;2023-03-25T14:17:18;93952.81;;;18.62;41.30
29197;BME280;62796;42.654;23.316;2023-03-25T14:19:51;93948.75;;;18.70;41.22
29197;BME280;62796;42.654;23.316;2023-03-25T14:22:26;93949.91;;;18.75;41.40
29197;BME280;62796;42.654;23.316;2023-03-25T14:24:52;93945.06;;;18.83;41.67
29197;BME280;62796;42.654;23.316;2023-03-25T14:27:30;93949.78;;;18.88;41.23
29197;BME280;62796;42.654;23.316;2023-03-25T14:29:59;93944.72;;;18.87;41.56
29197;BME280;62796;42.654;23.316;2023-03-25T14:46:05;93871.78;;;18.15;44.73
29197;BME280;62796;42.654;23.316;2023-03-25T14:54:31;93850.78;;;17.80;46.62
29197;BME280;62796;42.654;23.316;2023-03-25T14:57:14;93844.19;;;17.70;47.39
29197;BME280;62796;42.654;23.316;2023-03-25T14:59:49;93844.53;;;17.66;47.71
29197;BME280;62796;42.654;23.316;2023-03-25T15:02:18;93847.97;;;17.80;47.30